createdAt,value
2022-08-25T00:02:11.296Z,20.90
2022-08-25T00:05:02.042Z,20.80
2022-08-25T00:07:53.774Z,20.90
2022-08-25T00:10:42.352Z,20.80
2022-08-25T00:13:30.718Z,20.90
2022-08-25T00:16:19.831Z,20.90
2022-08-25T00:19:10.108Z,20.90
2022-08-25T00:21:57.948Z,20.90
2022-08-25T00:24:46.604Z,20.90
2022-08-25T00:27:43.773Z,20.80
2022-08-25T00:30:37.405Z,21.00
2022-08-25T00:33:24.855Z,21.40
2022-08-25T00:36:13.385Z,20.80
2022-08-25T00:39:01.167Z,20.80
2022-08-25T00:41:51.747Z,20.80
2022-08-25T00:44:40.253Z,20.80
2022-08-25T00:47:27.802Z,20.60
2022-08-25T00:50:17.375Z,20.70
2022-08-25T00:53:06.278Z,20.70
2022-08-25T00:55:54.335Z,20.70
2022-08-25T00:58:44.095Z,20.50
2022-08-25T01:01:35.162Z,20.50
2022-08-25T01:04:23.871Z,21.60
2022-08-25T01:07:17.381Z,20.30
2022-08-25T01:10:08.134Z,20.20
2022-08-25T01:12:59.668Z,20.10
2022-08-25T01:15:50.039Z,20.00
2022-08-25T01:18:44.844Z,19.90
2022-08-25T01:21:39.823Z,19.00
2022-08-25T01:24:37.542Z,19.70
2022-08-25T01:27:24.855Z,19.60
2022-08-25T01:30:12.932Z,19.40
2022-08-25T01:33:00.554Z,19.50
2022-08-25T01:35:49.047Z,18.20
2022-08-25T01:38:37.822Z,19.30
2022-08-25T01:41:28.705Z,19.20
2022-08-25T01:44:16.711Z,19.10
2022-08-25T01:47:05.179Z,19.00
2022-08-25T01:49:53.233Z,19.00
2022-08-25T01:52:47.592Z,18.90
2022-08-25T01:55:51.877Z,18.90
2022-08-25T01:58:41.754Z,18.90
2022-08-25T02:01:29.958Z,18.80
2022-08-25T02:04:18.108Z,18.90
2022-08-25T02:07:10.682Z,18.70
2022-08-25T02:09:58.793Z,18.60
2022-08-25T02:12:54.410Z,18.70
2022-08-25T02:15:43.584Z,18.70
2022-08-25T02:18:31.728Z,20.30
2022-08-25T02:21:19.383Z,18.60
2022-08-25T02:24:07.060Z,18.50
2022-08-25T02:26:59.626Z,18.50
2022-08-25T02:29:49.489Z,18.50
2022-08-25T02:32:36.726Z,18.60
2022-08-25T02:35:25.282Z,18.60
2022-08-25T02:38:12.891Z,18.50
2022-08-25T02:41:01.425Z,18.50
2022-08-25T02:43:54.984Z,18.50
2022-08-25T02:46:43.756Z,18.50
2022-08-25T02:49:32.262Z,18.50
2022-08-25T02:52:20.447Z,18.50
2022-08-25T02:55:08.720Z,18.50
2022-08-25T02:57:56.795Z,18.40
2022-08-25T03:00:44.266Z,18.40
2022-08-25T03:03:37.503Z,18.50
2022-08-25T03:06:28.118Z,18.50
2022-08-25T03:09:16.663Z,18.40
2022-08-25T03:12:05.338Z,18.40
2022-08-25T03:14:53.337Z,18.30
2022-08-25T03:17:43.782Z,18.30
2022-08-25T03:20:35.582Z,18.20
2022-08-25T03:23:23.316Z,18.20
2022-08-25T03:26:29.073Z,18.20
2022-08-25T03:29:18.612Z,18.20
2022-08-25T03:32:06.653Z,18.10
2022-08-25T03:34:54.656Z,18.20
2022-08-25T03:37:44.084Z,18.20
2022-08-25T03:40:31.586Z,18.20
2022-08-25T03:43:19.371Z,18.80
2022-08-25T03:46:07.578Z,18.30
2022-08-25T03:48:55.422Z,16.60
2022-08-25T03:51:43.874Z,18.30
2022-08-25T03:54:32.807Z,18.30
2022-08-25T03:57:20.873Z,18.30
2022-08-25T04:00:13.315Z,18.30
2022-08-25T04:03:02.514Z,18.30
2022-08-25T04:05:50.505Z,18.20
2022-08-25T04:08:38.435Z,18.20
2022-08-25T04:11:27.869Z,18.80
2022-08-25T04:14:16.730Z,18.20
2022-08-25T04:17:04.777Z,18.10
2022-08-25T04:19:52.899Z,18.10
2022-08-25T04:22:40.422Z,18.10
2022-08-25T04:25:32.847Z,18.10
2022-08-25T04:28:25.118Z,18.20
2022-08-25T04:31:14.593Z,18.20
2022-08-25T04:34:02.824Z,18.10
2022-08-25T04:36:52.704Z,18.20
2022-08-25T04:39:40.208Z,18.20
2022-08-25T04:42:28.251Z,18.10
2022-08-25T04:45:17.575Z,18.20
2022-08-25T04:48:06.321Z,18.20
2022-08-25T04:50:54.931Z,18.20
2022-08-25T04:53:43.446Z,18.10
2022-08-25T04:56:32.753Z,18.00
2022-08-25T04:59:20.554Z,18.10
2022-08-25T05:02:09.993Z,18.10
2022-08-25T05:04:57.689Z,18.10
2022-08-25T05:07:47.044Z,18.00
2022-08-25T05:10:35.038Z,18.00
2022-08-25T05:13:22.246Z,18.00
2022-08-25T05:16:11.522Z,18.00
2022-08-25T05:19:00.644Z,17.90
2022-08-25T05:21:48.380Z,17.90
2022-08-25T05:24:36.615Z,18.00
2022-08-25T05:27:24.073Z,17.90
2022-08-25T05:30:12.652Z,16.20
2022-08-25T05:33:00.083Z,18.00
2022-08-25T05:35:49.989Z,18.00
2022-08-25T05:38:39.939Z,18.00
2022-08-25T05:41:28.677Z,18.10
2022-08-25T05:44:20.859Z,18.10
2022-08-25T05:47:09.368Z,18.20
2022-08-25T05:49:56.893Z,19.80
2022-08-25T05:52:48.390Z,18.50
2022-08-25T05:55:35.980Z,17.40
2022-08-25T05:58:24.683Z,18.70
2022-08-25T06:01:38.041Z,18.70
2022-08-25T06:04:25.572Z,18.90
2022-08-25T06:07:13.249Z,19.20
2022-08-25T06:10:02.427Z,19.60
2022-08-25T06:12:50.251Z,19.80
2022-08-25T06:15:37.645Z,20.00
2022-08-25T06:18:25.488Z,20.10
2022-08-25T06:21:14.265Z,20.20
2022-08-25T06:24:01.445Z,20.30
2022-08-25T06:26:50.307Z,20.30
2022-08-25T06:29:37.977Z,20.40
2022-08-25T06:32:26.110Z,20.50
2022-08-25T06:35:14.316Z,20.50
2022-08-25T06:38:02.449Z,20.60
2022-08-25T06:40:51.290Z,20.70
2022-08-25T06:43:44.977Z,20.80
2022-08-25T06:46:37.179Z,20.90
2022-08-25T06:49:29.291Z,20.90
2022-08-25T06:52:18.415Z,21.00
2022-08-25T06:55:06.890Z,21.00
2022-08-25T06:57:55.245Z,21.10
2022-08-25T07:00:44.210Z,21.10
2022-08-25T07:03:32.090Z,21.20
2022-08-25T07:06:19.923Z,21.30
2022-08-25T07:09:08.492Z,21.30
2022-08-25T07:11:58.839Z,21.40
2022-08-25T07:15:10.092Z,21.50
2022-08-25T07:17:58.800Z,21.60
2022-08-25T07:20:47.028Z,21.70
2022-08-25T07:23:35.137Z,21.80
2022-08-25T07:26:37.441Z,21.90
2022-08-25T07:29:32.902Z,21.90
2022-08-25T07:32:20.681Z,22.00
2022-08-25T07:35:20.564Z,22.20
2022-08-25T07:38:12.973Z,22.30
2022-08-25T07:41:03.784Z,22.40
2022-08-25T07:43:52.267Z,22.50
2022-08-25T07:46:41.679Z,22.60
2022-08-25T07:49:35.849Z,22.60
2022-08-25T07:52:28.459Z,22.80
2022-08-25T07:55:17.995Z,22.90
2022-08-25T07:58:06.590Z,23.10
2022-08-25T08:00:54.185Z,23.10
2022-08-25T08:03:50.374Z,23.10
2022-08-25T08:06:40.479Z,23.20
2022-08-25T08:09:32.424Z,23.30
2022-08-25T08:12:20.348Z,23.30
2022-08-25T08:15:10.313Z,23.30
2022-08-25T08:17:59.390Z,23.50
2022-08-25T08:20:46.919Z,23.60
2022-08-25T08:23:34.935Z,23.70
2022-08-25T08:26:36.455Z,23.80
2022-08-25T08:29:30.194Z,23.90
2022-08-25T08:32:19.541Z,24.10
2022-08-25T08:35:08.106Z,24.30
2022-08-25T08:37:55.625Z,24.60
2022-08-25T08:41:07.026Z,24.70
2022-08-25T08:43:57.853Z,24.80
2022-08-25T08:46:50.764Z,24.90
2022-08-25T08:49:42.199Z,25.00
2022-08-25T08:52:37.254Z,25.20
2022-08-25T08:55:27.766Z,25.40
2022-08-25T08:58:19.490Z,25.40
2022-08-25T09:01:18.338Z,25.60
2022-08-25T09:04:09.976Z,25.60
2022-08-25T09:06:58.517Z,25.80
2022-08-25T09:09:47.629Z,26.00
2022-08-25T09:12:38.269Z,26.20
2022-08-25T09:15:52.717Z,26.30
2022-08-25T09:18:51.521Z,26.60
2022-08-25T09:21:44.086Z,26.80
2022-08-25T09:24:37.682Z,27.30
2022-08-25T09:27:29.915Z,27.20
2022-08-25T09:30:18.475Z,27.30
2022-08-25T09:33:07.294Z,27.50
2022-08-25T09:35:57.935Z,27.80
2022-08-25T09:38:45.257Z,28.30
2022-08-25T09:41:37.583Z,28.70
2022-08-25T09:44:28.842Z,29.10
2022-08-25T09:47:22.054Z,29.10
2022-08-25T09:50:18.620Z,29.20
2022-08-25T09:53:18.817Z,29.20
2022-08-25T09:56:12.592Z,29.30
2022-08-25T09:59:34.419Z,29.40
2022-08-25T10:02:25.372Z,29.70
2022-08-25T10:05:24.424Z,29.80
2022-08-25T10:08:15.116Z,29.80
2022-08-25T10:11:09.026Z,29.70
2022-08-25T10:14:03.323Z,29.90
2022-08-25T10:16:51.188Z,29.90
2022-08-25T10:19:39.191Z,29.90
2022-08-25T10:22:32.571Z,30.10
2022-08-25T10:25:23.230Z,30.10
2022-08-25T10:28:16.160Z,30.30
2022-08-25T10:31:09.673Z,30.30
2022-08-25T10:34:03.270Z,30.50
2022-08-25T10:36:57.728Z,30.50
2022-08-25T10:39:46.489Z,30.50
2022-08-25T10:42:49.488Z,30.50
2022-08-25T10:45:44.496Z,30.60
2022-08-25T10:48:50.055Z,30.70
2022-08-25T10:51:42.418Z,30.90
2022-08-25T10:54:36.617Z,30.90
2022-08-25T10:57:31.181Z,31.00
2022-08-25T11:00:19.887Z,31.00
2022-08-25T11:03:17.246Z,31.20
2022-08-25T11:06:07.352Z,31.30
2022-08-25T11:09:02.383Z,31.30
2022-08-25T11:11:55.330Z,31.40
2022-08-25T11:14:47.937Z,31.30
2022-08-25T11:17:38.831Z,31.30
2022-08-25T11:20:34.760Z,31.30
2022-08-25T11:23:24.164Z,31.30
2022-08-25T11:26:13.159Z,31.40
2022-08-25T11:29:04.189Z,31.40
2022-08-25T11:31:53.753Z,31.40
2022-08-25T11:34:42.989Z,31.50
2022-08-25T11:37:33.750Z,31.60
2022-08-25T11:40:32.375Z,31.80
2022-08-25T11:43:35.897Z,31.80
2022-08-25T11:46:28.315Z,31.90
2022-08-25T11:49:41.726Z,32.10
2022-08-25T11:52:54.072Z,32.20
2022-08-25T11:55:49.120Z,32.40
2022-08-25T11:58:43.736Z,32.50
2022-08-25T12:01:46.417Z,32.40
2022-08-25T12:04:44.157Z,32.30
2022-08-25T12:07:47.672Z,32.30
2022-08-25T12:10:51.609Z,32.30
2022-08-25T12:13:43.744Z,32.30
2022-08-25T12:16:43.651Z,32.20
2022-08-25T12:19:48.736Z,32.30
2022-08-25T12:22:57.248Z,32.30
2022-08-25T12:25:50.593Z,32.50
2022-08-25T12:28:47.224Z,32.60
2022-08-25T12:31:51.055Z,32.80
2022-08-25T12:34:44.804Z,32.70
2022-08-25T12:37:33.389Z,32.90
2022-08-25T12:40:26.526Z,32.60
2022-08-25T12:43:26.528Z,32.50
2022-08-25T12:46:35.387Z,32.50
2022-08-25T12:49:41.144Z,32.60
2022-08-25T12:52:28.381Z,32.70
2022-08-25T12:55:16.728Z,32.90
2022-08-25T12:58:08.142Z,33.00
2022-08-25T13:01:07.624Z,33.10
2022-08-25T13:04:10.515Z,32.40
2022-08-25T13:07:06.329Z,33.20
2022-08-25T13:10:09.132Z,33.40
2022-08-25T13:12:59.806Z,33.40
2022-08-25T13:15:59.277Z,33.50
2022-08-25T13:18:51.401Z,33.30
2022-08-25T13:21:42.854Z,33.20
2022-08-25T13:24:31.333Z,33.10
2022-08-25T13:27:29.138Z,33.00
2022-08-25T13:30:23.947Z,33.00
2022-08-25T13:33:19.980Z,33.20
2022-08-25T13:36:25.901Z,33.30
2022-08-25T13:39:20.041Z,33.30
2022-08-25T13:42:27.406Z,33.40
2022-08-25T13:45:18.126Z,33.50
2022-08-25T13:48:05.913Z,33.20
2022-08-25T13:50:54.156Z,32.70
2022-08-25T13:56:40.020Z,32.10
2022-08-25T13:59:34.339Z,32.00
2022-08-25T14:02:44.813Z,32.00
2022-08-25T14:05:39.541Z,31.80
2022-08-25T14:08:34.886Z,31.80
2022-08-25T14:11:30.465Z,31.80
2022-08-25T14:14:33.763Z,31.70
2022-08-25T14:17:38.154Z,31.60
2022-08-25T14:20:29.789Z,31.50
2022-08-25T14:23:19.220Z,31.40
2022-08-25T14:26:07.505Z,30.80
2022-08-25T14:28:56.508Z,31.10
2022-08-25T14:31:46.293Z,31.10
2022-08-25T14:34:36.678Z,30.80
2022-08-25T14:37:25.835Z,31.10
2022-08-25T14:40:16.314Z,31.10
2022-08-25T14:43:05.574Z,31.20
2022-08-25T14:45:57.604Z,31.20
2022-08-25T14:48:49.049Z,31.10
2022-08-25T14:51:37.109Z,31.10
2022-08-25T14:54:26.933Z,31.10
2022-08-25T14:57:14.835Z,31.00
2022-08-25T15:00:02.596Z,30.90
2022-08-25T15:02:51.658Z,31.10
2022-08-25T15:05:41.922Z,31.20
2022-08-25T15:08:47.401Z,31.40
2022-08-25T15:11:35.844Z,31.60
2022-08-25T15:14:28.588Z,31.80
2022-08-25T15:17:20.503Z,32.20
2022-08-25T15:20:08.799Z,32.30
2022-08-25T15:23:00.368Z,32.20
2022-08-25T15:25:49.314Z,32.00
2022-08-25T15:28:43.246Z,31.80
2022-08-25T15:31:32.160Z,31.70
2022-08-25T15:34:21.098Z,31.80
2022-08-25T15:37:10.289Z,32.10
2022-08-25T15:39:59.493Z,31.80
2022-08-25T15:42:46.767Z,31.90
2022-08-25T15:45:36.217Z,31.80
2022-08-25T15:48:25.090Z,31.70
2022-08-25T15:51:12.920Z,31.80
2022-08-25T15:54:00.918Z,31.50
2022-08-25T15:56:49.762Z,31.20
2022-08-25T15:59:40.973Z,31.00
2022-08-25T16:02:29.055Z,31.00
2022-08-25T16:05:16.976Z,30.90
2022-08-25T16:08:04.868Z,31.00
2022-08-25T16:10:53.227Z,31.20
2022-08-25T16:13:42.490Z,31.30
2022-08-25T16:16:30.817Z,31.40
2022-08-25T16:19:20.501Z,31.30
2022-08-25T16:22:09.041Z,31.20
2022-08-25T16:24:58.887Z,31.00
2022-08-25T16:27:46.650Z,30.60
2022-08-25T16:30:36.258Z,30.30
2022-08-25T16:33:24.162Z,29.80
2022-08-25T16:36:13.787Z,29.50
2022-08-25T16:39:02.296Z,29.40
2022-08-25T16:41:51.343Z,29.40
2022-08-25T16:44:40.064Z,29.20
2022-08-25T16:47:29.323Z,29.00
2022-08-25T16:50:17.706Z,28.90
2022-08-25T16:53:23.986Z,28.70
2022-08-25T16:56:12.157Z,28.80
2022-08-25T16:59:00.728Z,28.70
2022-08-25T17:01:48.338Z,28.90
2022-08-25T17:04:37.270Z,28.60
2022-08-25T17:07:27.862Z,28.20
2022-08-25T17:10:16.835Z,28.10
2022-08-25T17:13:05.333Z,28.00
2022-08-25T17:15:53.411Z,27.90
2022-08-25T17:18:41.212Z,27.70
2022-08-25T17:21:33.626Z,27.70
2022-08-25T17:24:22.466Z,27.60
2022-08-25T17:27:19.298Z,27.50
2022-08-25T17:30:07.717Z,27.40
2022-08-25T17:32:59.934Z,27.30
2022-08-25T17:35:48.672Z,27.20
2022-08-25T17:38:39.529Z,27.00
2022-08-25T17:41:27.815Z,26.90
2022-08-25T17:44:16.314Z,26.90
2022-08-25T17:47:04.036Z,26.70
2022-08-25T17:49:54.575Z,26.60
2022-08-25T17:52:41.790Z,26.30
2022-08-25T17:55:31.482Z,26.20
2022-08-25T17:58:20.165Z,26.10
2022-08-25T18:01:08.103Z,25.90
2022-08-25T18:03:56.490Z,25.80
2022-08-25T18:06:44.536Z,25.70
2022-08-25T18:09:33.288Z,25.50
2022-08-25T18:12:22.644Z,25.40
2022-08-25T18:15:15.673Z,25.30
2022-08-25T18:18:04.677Z,25.10
2022-08-25T18:20:52.809Z,25.00
2022-08-25T18:23:40.174Z,25.50
2022-08-25T18:26:28.320Z,24.80
2022-08-25T18:29:17.906Z,24.70
2022-08-25T18:32:05.834Z,24.50
2022-08-25T18:34:54.899Z,25.60
2022-08-25T18:38:00.568Z,24.50
2022-08-25T18:40:48.547Z,24.30
2022-08-25T18:43:36.833Z,24.20
2022-08-25T18:46:28.403Z,24.20
2022-08-25T18:49:22.555Z,24.30
2022-08-25T18:52:33.673Z,24.00
2022-08-25T18:55:25.033Z,23.40
2022-08-25T18:58:14.604Z,23.80
2022-08-25T19:01:02.191Z,23.80
2022-08-25T19:03:51.385Z,23.80
2022-08-25T19:06:52.351Z,23.60
2022-08-25T19:09:41.797Z,23.60
2022-08-25T19:12:32.398Z,22.70
2022-08-25T19:15:25.680Z,23.40
2022-08-25T19:18:17.273Z,23.30
2022-08-25T19:21:07.514Z,23.20
2022-08-25T19:23:55.046Z,23.00
2022-08-25T19:26:43.540Z,22.90
2022-08-25T19:29:31.371Z,22.80
2022-08-25T19:32:20.062Z,22.70
2022-08-25T19:35:08.111Z,22.70
2022-08-25T19:37:58.461Z,22.50
2022-08-25T19:40:47.053Z,22.50
2022-08-25T19:43:40.323Z,22.40
2022-08-25T19:46:44.922Z,22.40
2022-08-25T19:49:37.018Z,22.30
2022-08-25T19:52:28.813Z,22.20
2022-08-25T19:55:18.179Z,22.20
2022-08-25T19:58:11.053Z,22.10
2022-08-25T20:00:59.885Z,22.00
2022-08-25T20:03:48.916Z,22.10
2022-08-25T20:06:38.430Z,22.00
2022-08-25T20:09:38.960Z,21.90
2022-08-25T20:12:34.637Z,21.80
2022-08-25T20:15:23.581Z,21.70
2022-08-25T20:18:13.889Z,21.70
2022-08-25T20:21:04.558Z,21.60
2022-08-25T20:24:10.536Z,21.60
2022-08-25T20:26:59.125Z,21.50
2022-08-25T20:29:50.556Z,21.50
2022-08-25T20:32:39.843Z,21.50
2022-08-25T20:35:28.402Z,21.50
2022-08-25T20:38:16.855Z,21.40
2022-08-25T20:41:10.458Z,21.40
2022-08-25T20:43:59.252Z,21.40
2022-08-25T20:46:50.071Z,22.80
2022-08-25T20:49:40.689Z,21.30
2022-08-25T20:52:30.949Z,21.30
2022-08-25T20:55:19.253Z,21.40
2022-08-25T20:58:08.518Z,21.30
2022-08-25T21:00:59.894Z,21.20
2022-08-25T21:03:49.729Z,21.20
2022-08-25T21:06:37.968Z,21.20
2022-08-25T21:09:27.897Z,21.20
2022-08-25T21:12:15.363Z,21.20
2022-08-25T21:15:03.162Z,21.20
2022-08-25T21:17:51.559Z,21.20
2022-08-25T21:20:43.740Z,21.10
2022-08-25T21:23:31.226Z,21.10
2022-08-25T21:26:20.557Z,21.10
2022-08-25T21:29:15.166Z,20.90
2022-08-25T21:32:05.793Z,21.00
2022-08-25T21:34:55.150Z,21.00
2022-08-25T21:37:47.699Z,21.00
2022-08-25T21:40:44.885Z,20.90
2022-08-25T21:43:35.980Z,20.90
2022-08-25T21:46:30.048Z,20.90
2022-08-25T21:49:19.656Z,20.90
2022-08-25T21:52:07.806Z,20.80
2022-08-25T21:54:57.074Z,20.80
2022-08-25T21:57:45.592Z,20.80
2022-08-25T22:00:34.036Z,20.80
2022-08-25T22:03:22.001Z,20.80
2022-08-25T22:06:12.432Z,20.80
2022-08-25T22:09:00.366Z,19.50
2022-08-25T22:11:55.801Z,20.70
2022-08-25T22:14:47.089Z,20.80
2022-08-25T22:17:36.103Z,20.70
2022-08-25T22:20:24.084Z,20.70
2022-08-25T22:23:20.216Z,20.70
2022-08-25T22:26:16.430Z,20.60
2022-08-25T22:29:11.884Z,20.70
2022-08-25T22:32:02.418Z,20.70
2022-08-25T22:34:51.071Z,20.70
2022-08-25T22:37:39.825Z,20.70
2022-08-25T22:40:27.985Z,20.60
2022-08-25T22:43:19.579Z,20.60
2022-08-25T22:46:12.744Z,20.60
2022-08-25T22:49:01.941Z,20.60
2022-08-25T22:51:55.058Z,20.60
2022-08-25T22:54:45.901Z,20.60
2022-08-25T22:57:35.569Z,20.60
2022-08-25T23:00:26.130Z,20.90
2022-08-25T23:03:14.924Z,20.50
2022-08-25T23:06:03.541Z,20.50
2022-08-25T23:08:53.934Z,20.60
2022-08-25T23:11:43.902Z,20.60
2022-08-25T23:14:34.645Z,20.50
2022-08-25T23:17:23.488Z,20.60
2022-08-25T23:20:31.020Z,20.50
2022-08-25T23:23:19.543Z,20.50
2022-08-25T23:26:11.635Z,20.50
2022-08-25T23:29:03.226Z,20.50
2022-08-25T23:32:07.369Z,20.40
2022-08-25T23:34:57.464Z,20.40
2022-08-25T23:37:47.159Z,20.40
2022-08-25T23:40:36.468Z,20.40
2022-08-25T23:43:25.809Z,20.40
2022-08-25T23:46:13.790Z,20.40
2022-08-25T23:49:01.740Z,20.30
2022-08-25T23:51:51.855Z,20.80
2022-08-25T23:54:48.018Z,20.60
2022-08-25T23:57:35.854Z,20.40
